Time;durP1;ratioP1;P1;durP2;ratioP2;P2;SDS_P1;SDS_P2;PMS_P1;PMS_P2;Temp;Humidity;BMP_temperature;BMP_pressure;BME280_temperature;BME280_humidity;BME280_pressure;Samples;Min_cycle;Max_cycle;Signal;HPM_P1;HPM_P2
2021/01/29 00:00:45;;;;;;;4.40;3.93;;;;;;;-0.95;92.15;97909.66;1750032;81;21129;-62
2021/01/29 00:03:16;;;;;;;4.47;3.90;;;;;;;-0.96;92.21;97881.66;1727378;83;21157;-63
2021/01/29 00:05:51;;;;;;;6.13;4.00;;;;;;;-0.96;92.32;97892.20;1733121;81;21210;-62
2021/01/29 00:08:21;;;;;;;4.77;4.03;;;;;;;-0.97;92.24;97897.22;1739906;82;21136;-63
2021/01/29 00:10:49;;;;;;;5.47;3.30;;;;;;;-0.95;92.17;97899.61;1740030;81;21617;-63
2021/01/29 00:13:18;;;;;;;4.00;3.17;;;;;;;-0.99;91.79;97890.53;1753328;81;21155;-63
2021/01/29 00:15:46;;;;;;;4.13;3.27;;;;;;;-1.02;91.73;97894.94;1744424;81;21141;-64
2021/01/29 00:18:18;;;;;;;3.83;3.53;;;;;;;-1.05;91.56;97891.41;1708135;83;21462;-64
2021/01/29 00:20:46;;;;;;;9.00;5.53;;;;;;;-1.09;91.47;97878.36;1715859;81;21585;-66
2021/01/29 00:23:16;;;;;;;6.17;4.40;;;;;;;-1.12;91.48;97888.86;1739949;82;21535;-63
2021/01/29 00:25:50;;;;;;;4.63;3.57;;;;;;;-1.12;91.61;97875.67;1719715;81;21598;-63
2021/01/29 00:28:19;;;;;;;6.60;4.30;;;;;;;-1.11;91.68;97877.80;1739896;82;21656;-63
2021/01/29 00:30:49;;;;;;;6.67;4.10;;;;;;;-1.12;91.82;97870.91;1739949;82;22383;-64
2021/01/29 00:33:19;;;;;;;4.07;3.10;;;;;;;-1.11;91.96;97873.84;1758840;81;21161;-64
2021/01/29 00:35:47;;;;;;;3.73;3.30;;;;;;;-1.13;92.16;97871.41;1745849;81;21568;-65
2021/01/29 00:38:14;;;;;;;3.93;3.10;;;;;;;-1.14;92.18;97867.66;1723594;82;21217;-67
2021/01/29 00:40:42;;;;;;;4.23;3.63;;;;;;;-1.15;92.41;97870.03;1730548;81;21179;-66
2021/01/29 00:43:10;;;;;;;4.60;3.67;;;;;;;-1.17;92.47;97857.56;1748807;81;21391;-67
2021/01/29 00:45:39;;;;;;;3.87;3.57;;;;;;;-1.20;92.49;97863.29;1763020;81;21102;-66
2021/01/29 00:48:15;;;;;;;4.33;2.80;;;;;;;-1.22;92.55;97862.19;1724172;83;21242;-67
2021/01/29 00:50:43;;;;;;;3.63;3.00;;;;;;;-1.27;92.65;97859.39;1723261;83;21161;-68
2021/01/29 00:53:11;;;;;;;5.10;3.30;;;;;;;-1.31;92.79;97866.14;1709845;81;21567;-65
2021/01/29 00:55:39;;;;;;;4.13;3.70;;;;;;;-1.34;92.72;97866.55;1737010;81;21201;-67
2021/01/29 00:58:08;;;;;;;3.63;3.23;;;;;;;-1.40;92.75;97857.71;1725466;83;21260;-66
2021/01/29 01:00:48;;;;;;;3.13;2.73;;;;;;;-1.44;92.79;97849.92;1728812;82;21204;-64
2021/01/29 01:03:33;;;;;;;4.23;3.63;;;;;;;-1.42;92.79;97853.67;1844958;76;27099;-72
2021/01/29 01:06:01;;;;;;;4.97;3.57;;;;;;;-1.48;92.84;97846.11;1816355;78;21011;-67
2021/01/29 01:08:39;;;;;;;3.53;3.23;;;;;;;-1.47;92.83;97845.61;1815523;79;21163;-65
2021/01/29 01:11:12;;;;;;;3.87;3.35;;;;;;;-1.45;92.78;97839.62;1780585;79;21047;-65
2021/01/29 01:13:42;;;;;;;3.00;2.70;;;;;;;-1.44;92.77;97838.59;1780856;80;21026;-65
2021/01/29 01:16:28;;;;;;;3.37;3.07;;;;;;;-1.44;92.56;97847.28;1784859;80;21157;-65
2021/01/29 01:18:58;;;;;;;4.00;2.90;;;;;;;-1.46;92.36;97845.91;1764547;80;20999;-66
2021/01/29 01:21:47;;;;;;;4.53;2.17;;;;;;;-1.48;92.10;97838.20;1865676;76;26533;-63
2021/01/29 01:24:20;;;;;;;2.90;2.70;;;;;;;-1.52;92.04;97842.30;1788607;80;21155;-64
2021/01/29 01:26:47;;;;;;;3.10;2.67;;;;;;;-1.56;91.87;97835.05;1808446;78;21205;-63
2021/01/29 01:29:17;;;;;;;3.53;2.53;;;;;;;-1.59;91.90;97840.77;1739102;80;20924;-62
2021/01/29 01:31:45;;;;;;;3.23;2.93;;;;;;;-1.61;91.97;97841.48;1820339;78;20998;-62
2021/01/29 01:34:31;;;;;;;3.40;3.10;;;;;;;-1.61;92.03;97841.48;1811324;78;21579;-65
2021/01/29 01:37:01;;;;;;;2.43;2.23;;;;;;;-1.63;92.06;97836.97;1782329;78;21612;-65
2021/01/29 01:39:47;;;;;;;2.93;2.73;;;;;;;-1.64;92.11;97835.34;1796290;78;21967;-64
2021/01/29 01:42:15;;;;;;;2.87;2.67;;;;;;;-1.64;92.25;97828.25;1793773;78;20999;-63
2021/01/29 01:44:44;;;;;;;3.23;2.80;;;;;;;-1.64;92.28;97838.79;1789803;80;20974;-64
2021/01/29 01:47:37;;;;;;;3.73;3.20;;;;;;;-1.62;92.37;97838.55;1785005;80;21110;-65
2021/01/29 01:50:20;;;;;;;3.73;3.00;;;;;;;-1.63;92.27;97847.51;1794445;78;21102;-67
2021/01/29 01:52:50;;;;;;;4.50;4.00;;;;;;;-1.66;92.27;97842.14;1777706;80;21393;-65
2021/01/29 01:55:37;;;;;;;3.90;3.40;;;;;;;-1.73;92.00;97848.51;1790380;78;22003;-67
2021/01/29 01:58:24;;;;;;;2.93;2.70;;;;;;;-1.77;92.02;97853.38;1755962;81;21155;-65
2021/01/29 02:00:59;;;;;;;5.03;3.47;;;;;;;-1.76;92.13;97828.66;1780498;78;21137;-66
2021/01/29 02:03:30;;;;;;;4.73;3.50;;;;;;;-1.74;91.95;97835.03;1788602;80;21127;-64
2021/01/29 02:06:05;;;;;;;6.17;3.90;;;;;;;-1.77;91.72;97847.61;1819948;78;21650;-64
2021/01/29 02:08:41;;;;;;;5.93;4.07;;;;;;;-1.80;91.61;97828.29;1785878;80;21038;-65
2021/01/29 02:11:24;;;;;;;5.17;4.13;;;;;;;-1.84;91.52;97828.43;1756361;80;21127;-63
2021/01/29 02:14:03;;;;;;;5.77;3.90;;;;;;;-1.86;91.46;97814.66;1847553;76;26889;-63
2021/01/29 02:17:07;;;;;;;5.90;4.97;;;;;;;-1.94;91.45;97836.52;1816529;78;20999;-62
2021/01/29 02:20:41;;;;;;;8.20;4.10;;;;;;;-1.95;91.29;97838.85;1889540;74;26932;-62
2021/01/29 02:23:34;;;;;;;4.53;3.33;;;;;;;-2.05;91.10;97831.44;1765553;77;21109;-65
2021/01/29 02:26:33;;;;;;;4.50;4.10;;;;;;;-2.06;91.33;97825.87;1821909;78;21208;-63
2021/01/29 02:29:28;;;;;;;6.23;4.03;;;;;;;-2.10;91.06;97829.95;1829373;77;20996;-63
2021/01/29 02:32:48;;;;;;;4.03;3.63;;;;;;;-2.15;91.17;97820.58;1858322;77;21011;-64
2021/01/29 02:35:54;;;;;;;13.13;5.07;;;;;;;-2.20;91.10;97823.86;1860043;77;21612;-65
2021/01/29 02:38:56;;;;;;;4.00;3.30;;;;;;;-2.20;91.07;97817.78;1843096;77;21187;-65
2021/01/29 02:41:57;;;;;;;5.03;3.97;;;;;;;-2.20;91.04;97825.17;1832924;75;21333;-66
2021/01/29 02:45:19;;;;;;;8.73;4.67;;;;;;;-2.22;90.95;97824.59;1857152;77;21913;-65
2021/01/29 02:48:31;;;;;;;5.80;4.47;;;;;;;-2.22;90.99;97825.10;1844334;77;20983;-65
2021/01/29 02:51:26;;;;;;;4.30;3.90;;;;;;;-2.22;91.05;97821.97;1851766;75;21607;-64
2021/01/29 02:54:39;;;;;;;4.57;4.17;;;;;;;-2.17;91.19;97815.24;1826429;78;21141;-65
2021/01/29 02:57:44;;;;;;;4.30;3.87;;;;;;;-2.24;90.89;97812.65;1796998;78;21188;-64
2021/01/29 03:00:33;;;;;;;5.67;3.13;;;;;;;-2.26;90.81;97807.62;1862149;75;21003;-65
2021/01/29 03:03:17;;;;;;;3.87;3.40;;;;;;;-2.27;90.46;97803.88;1857756;76;21079;-65
2021/01/29 03:05:55;;;;;;;5.40;3.10;;;;;;;-2.29;90.12;97813.30;1823815;78;21155;-64
2021/01/29 03:08:32;;;;;;;6.90;4.43;;;;;;;-2.27;89.95;97802.56;1856166;75;21083;-66
2021/01/29 03:12:02;;;;;;;3.90;3.27;;;;;;;-2.26;89.71;97795.77;1728559;82;21294;-64
2021/01/29 03:15:21;;;;;;;6.00;5.00;;;;;;;-2.18;89.17;97793.88;1847205;76;26544;-64
2021/01/29 03:18:36;;;;;;;3.70;3.40;;;;;;;-2.20;88.45;97798.03;1846421;76;26660;-63
2021/01/29 03:21:30;;;;;;;2.63;2.43;;;;;;;-2.24;87.74;97795.03;1847201;76;26611;-64
2021/01/29 03:24:39;;;;;;;3.93;3.17;;;;;;;-2.31;87.49;97804.02;1816549;78;20952;-64
2021/01/29 03:27:23;;;;;;;3.03;2.73;;;;;;;-2.31;87.29;97798.24;1782157;79;23452;-63
2021/01/29 03:30:15;;;;;;;3.30;3.00;;;;;;;-2.30;86.66;97802.97;1799600;78;21018;-62
2021/01/29 03:33:01;;;;;;;3.47;3.17;;;;;;;-2.36;85.59;97805.97;1785063;80;21011;-62
2021/01/29 03:36:03;;;;;;;3.13;2.93;;;;;;;-2.41;85.13;97799.73;1784867;80;20957;-64
2021/01/29 03:39:14;;;;;;;4.60;3.07;;;;;;;-2.43;84.87;97793.36;1796455;77;21006;-63
2021/01/29 03:42:13;;;;;;;2.87;2.67;;;;;;;-2.47;84.44;97796.13;1731278;81;21218;-64
2021/01/29 03:45:31;;;;;;;2.93;2.47;;;;;;;-2.52;83.87;97796.46;1766153;79;21007;-68
2021/01/29 03:48:32;;;;;;;3.80;3.57;;;;;;;-2.58;83.58;97802.05;1813975;79;20908;-63
2021/01/29 03:51:49;;;;;;;3.30;3.00;;;;;;;-2.68;83.28;97805.16;1817094;78;21030;-63
2021/01/29 03:54:50;;;;;;;4.80;2.47;;;;;;;-2.73;83.17;97789.70;1816905;79;21110;-64
2021/01/29 03:58:10;;;;;;;2.53;2.37;;;;;;;-2.75;83.08;97783.86;1816215;79;21391;-63
2021/01/29 04:01:19;;;;;;;4.03;3.20;;;;;;;-2.78;83.01;97792.97;1808333;79;21035;-64
2021/01/29 04:04:22;;;;;;;3.33;3.03;;;;;;;-2.81;82.87;97800.48;1792911;79;20987;-65
2021/01/29 04:07:26;;;;;;;2.98;2.62;;;;;;;-2.84;82.69;97792.52;1721203;82;28548;-64
2021/01/29 04:10:24;;;;;;;4.53;4.13;;;;;;;-2.85;82.23;97802.73;1816860;76;26659;-62
2021/01/29 04:13:12;;;;;;;4.43;3.33;;;;;;;-2.95;81.92;97798.44;1776740;80;21091;-62
2021/01/29 04:15:49;;;;;;;5.23;3.97;;;;;;;-3.00;81.66;97800.89;1752705;80;21642;-63
2021/01/29 04:18:37;;;;;;;4.13;3.73;;;;;;;-3.03;81.58;97807.08;1767894;80;21001;-62
2021/01/29 04:21:29;;;;;;;3.90;3.20;;;;;;;-3.05;81.58;97791.50;1785063;80;20943;-63
2021/01/29 04:24:10;;;;;;;3.63;3.33;;;;;;;-3.06;81.43;97809.60;1783014;80;20986;-63
2021/01/29 04:31:16;;;;;;;4.03;3.63;;;;;;;-3.16;81.33;97803.98;1703035;84;21656;-63
2021/01/29 04:33:51;;;;;;;6.03;3.67;;;;;;;-3.24;81.49;97806.35;1753769;81;21045;-64
2021/01/29 04:36:21;;;;;;;3.90;3.37;;;;;;;-3.28;81.51;97786.77;1753910;81;20967;-65
2021/01/29 04:39:13;;;;;;;3.37;3.07;;;;;;;-3.30;81.51;97793.23;1718491;83;21109;-67
2021/01/29 04:42:05;;;;;;;4.70;4.23;;;;;;;-3.29;81.51;97797.47;1695494;82;21145;-62
2021/01/29 04:45:03;;;;;;;4.70;4.30;;;;;;;-3.30;81.56;97786.66;1785221;80;21323;-63
2021/01/29 04:47:45;;;;;;;5.37;3.83;;;;;;;-3.28;81.83;97790.70;1767117;80;20967;-64
2021/01/29 04:50:46;;;;;;;6.53;4.77;;;;;;;-3.27;81.68;97784.95;1703880;84;21037;-66
2021/01/29 04:53:43;;;;;;;9.00;5.53;;;;;;;-3.30;81.72;97784.03;1689798;84;21603;-64
2021/01/29 04:56:30;;;;;;;5.30;4.23;;;;;;;-3.34;81.79;97785.46;1727440;82;21168;-64
2021/01/29 04:59:19;;;;;;;5.10;4.23;;;;;;;-3.31;81.94;97793.73;1769192;80;21613;-63
2021/01/29 05:02:20;;;;;;;7.57;5.90;;;;;;;-3.27;81.84;97794.14;1703828;84;21085;-62
2021/01/29 05:05:28;;;;;;;5.57;4.90;;;;;;;-3.22;81.62;97787.25;1846165;76;26812;-64
2021/01/29 05:08:37;;;;;;;8.97;4.90;;;;;;;-3.23;81.75;97798.77;1808745;79;20955;-63
2021/01/29 05:12:02;;;;;;;16.07;6.60;;;;;;;-3.21;81.46;97801.17;1752801;80;21123;-62
2021/01/29 05:15:15;;;;;;;9.40;6.67;;;;;;;-3.23;81.31;97787.45;1752220;81;21057;-62
2021/01/29 05:18:09;;;;;;;6.63;5.20;;;;;;;-3.24;81.38;97793.72;1748978;80;21014;-62
2021/01/29 05:20:56;;;;;;;10.27;6.83;;;;;;;-3.21;81.34;97809.06;1747247;80;21073;-63
2021/01/29 05:23:38;;;;;;;9.67;7.40;;;;;;;-3.23;81.20;97816.36;1749683;81;21586;-61
2021/01/29 05:26:48;;;;;;;7.80;6.03;;;;;;;-3.24;81.10;97810.80;1753947;81;22256;-63
2021/01/29 05:29:35;;;;;;;12.30;7.40;;;;;;;-3.28;80.98;97796.47;1705007;84;21070;-64
2021/01/29 05:32:33;;;;;;;12.63;8.03;;;;;;;-3.31;81.16;97799.52;1702892;84;21053;-61
2021/01/29 05:35:11;;;;;;;9.43;7.17;;;;;;;-3.25;81.25;97799.98;1700577;84;21021;-61
2021/01/29 05:38:19;;;;;;;13.13;7.83;;;;;;;-3.23;80.84;97784.82;1761414;80;21211;-62
2021/01/29 05:40:58;;;;;;;9.50;6.63;;;;;;;-3.29;80.78;97784.33;1753887;81;21357;-62
2021/01/29 05:43:49;;;;;;;11.20;8.00;;;;;;;-3.30;80.86;97791.41;1735284;81;21121;-65
2021/01/29 05:46:45;;;;;;;10.57;8.17;;;;;;;-3.24;80.94;97787.14;1770497;80;21089;-63
2021/01/29 05:49:26;;;;;;;15.03;9.93;;;;;;;-3.19;80.95;97784.70;1782945;80;21602;-63
2021/01/29 05:52:23;;;;;;;23.93;14.27;;;;;;;-3.13;80.83;97794.38;1753957;81;21160;-61
2021/01/29 05:55:18;;;;;;;28.57;14.70;;;;;;;-3.09;80.91;97780.61;1754177;80;21578;-60
2021/01/29 05:57:55;;;;;;;;;;;;;;;-2.97;80.94;97789.16;1757046;80;20978;-61
2021/01/29 06:00:49;;;;;;;31.93;15.90;;;;;;;-2.92;80.85;97791.44;1753918;81;20115;-63
2021/01/29 06:03:56;;;;;;;22.70;12.53;;;;;;;-2.86;80.88;97797.17;1764781;80;22945;-62
2021/01/29 06:06:58;;;;;;;25.50;12.47;;;;;;;-2.81;80.66;97790.77;1784989;80;21145;-63
2021/01/29 06:09:53;;;;;;;17.80;10.43;;;;;;;-2.87;80.26;97787.66;1784368;80;21613;-62
2021/01/29 06:12:47;;;;;;;16.83;11.50;;;;;;;-2.90;80.66;97776.77;1785154;80;21157;-61
2021/01/29 06:15:58;;;;;;;13.73;10.67;;;;;;;-2.90;80.79;97780.71;1780526;80;21246;-63
2021/01/29 06:19:05;;;;;;;11.63;9.33;;;;;;;-2.90;80.86;97762.30;1781351;80;21010;-63
2021/01/29 06:22:06;;;;;;;21.63;9.57;;;;;;;-2.90;81.00;97759.17;1753598;80;21143;-64
2021/01/29 06:25:25;;;;;;;15.00;11.90;;;;;;;-2.90;81.17;97750.47;1753390;81;21373;-67
2021/01/29 06:28:22;;;;;;;14.77;10.77;;;;;;;-3.07;81.20;97755.94;1753201;81;21127;-62
2021/01/29 06:31:16;;;;;;;15.37;10.37;;;;;;;-3.14;81.81;97747.58;1756506;80;21001;-64
2021/01/29 06:34:34;;;;;;;17.93;12.10;;;;;;;-3.15;81.89;97738.06;1753655;80;21009;-61
2021/01/29 06:37:45;;;;;;;22.27;14.73;;;;;;;-3.20;82.14;97749.72;1680873;84;21205;-64
2021/01/29 06:40:29;;;;;;;19.70;12.43;;;;;;;-3.26;82.35;97740.57;1753888;80;21199;-63
2021/01/29 06:43:30;;;;;;;20.17;15.23;;;;;;;-3.28;82.51;97743.91;1753429;81;21161;-62
2021/01/29 06:46:43;;;;;;;13.67;10.73;;;;;;;-3.39;82.84;97756.38;1745282;81;21201;-64
2021/01/29 06:49:39;;;;;;;15.77;13.13;;;;;;;-3.41;83.44;97758.42;1722358;81;21163;-64
2021/01/29 06:52:39;;;;;;;20.00;11.97;;;;;;;-3.46;83.87;97758.23;1770346;80;21599;-65
2021/01/29 06:55:35;;;;;;;22.00;14.77;;;;;;;-3.43;84.23;97757.30;1778158;80;21208;-65
2021/01/29 06:58:27;;;;;;;23.07;17.40;;;;;;;-3.44;84.33;97760.13;1752922;81;21038;-62
2021/01/29 07:01:18;;;;;;;23.50;16.30;;;;;;;-3.50;84.59;97764.39;1764695;80;21679;-65
2021/01/29 07:04:23;;;;;;;25.77;18.63;;;;;;;-3.54;85.00;97772.39;1736403;80;21614;-67
2021/01/29 07:07:02;;;;;;;28.07;18.00;;;;;;;-3.54;85.25;97761.38;1776098;80;21611;-68
2021/01/29 07:09:55;;;;;;;19.43;15.13;;;;;;;-3.47;85.52;97756.62;1759107;81;21639;-61
2021/01/29 07:12:37;;;;;;;21.80;15.57;;;;;;;-3.47;85.48;97747.42;1789006;80;21575;-64
2021/01/29 07:15:22;;;;;;;27.03;17.57;;;;;;;-3.40;85.73;97742.94;1791194;80;21018;-65
2021/01/29 07:18:30;;;;;;;23.07;16.60;;;;;;;-3.36;85.71;97744.96;1789286;80;21149;-64
2021/01/29 07:21:23;;;;;;;18.47;15.00;;;;;;;-3.39;85.56;97746.67;1789446;80;21106;-64
2021/01/29 07:24:31;;;;;;;20.03;14.97;;;;;;;-3.45;85.83;97739.62;1789205;80;21407;-62
2021/01/29 07:27:23;;;;;;;25.07;16.90;;;;;;;-3.35;86.11;97728.66;1790095;80;21588;-64
2021/01/29 07:30:19;;;;;;;25.43;17.33;;;;;;;-3.27;85.90;97737.14;1779292;80;21049;-63
2021/01/29 07:33:10;;;;;;;27.40;17.23;;;;;;;-3.30;85.58;97731.47;1759231;80;21119;-65
2021/01/29 07:36:04;;;;;;;30.70;19.05;;;;;;;-3.30;85.76;97729.65;1759113;81;21602;-61
2021/01/29 07:39:01;;;;;;;24.52;17.30;;;;;;;-3.31;85.79;97713.58;1779042;80;21378;-62
2021/01/29 07:41:49;;;;;;;25.63;17.37;;;;;;;-3.29;85.90;97713.38;1789850;80;20967;-63
2021/01/29 07:44:34;;;;;;;24.47;18.27;;;;;;;-3.25;86.05;97727.20;1790151;79;21085;-65
2021/01/29 07:47:19;;;;;;;29.87;17.77;;;;;;;-3.20;86.02;97726.06;1790032;80;21180;-65
2021/01/29 07:50:18;;;;;;;27.00;17.37;;;;;;;-3.15;86.09;97714.41;1790129;80;21078;-62
2021/01/29 07:52:59;;;;;;;27.43;19.33;;;;;;;-3.11;86.05;97721.36;1788770;80;21204;-63
2021/01/29 07:55:29;;;;;;;29.17;20.00;;;;;;;-3.05;86.22;97715.77;1790081;80;21018;-64
2021/01/29 07:58:25;;;;;;;26.67;20.20;;;;;;;-2.99;86.14;97723.63;1789113;80;21125;-63
2021/01/29 08:01:19;;;;;;;25.50;18.83;;;;;;;-2.93;86.09;97717.53;1780739;79;21112;-65
2021/01/29 08:04:18;;;;;;;21.97;15.73;;;;;;;-2.86;86.06;97713.02;1757480;80;21151;-63
2021/01/29 08:07:14;;;;;;;28.77;18.90;;;;;;;-2.81;86.00;97706.61;1743223;82;21213;-66
2021/01/29 08:09:43;;;;;;;30.32;20.80;;;;;;;-2.80;85.90;97708.73;1743411;82;21081;-64
2021/01/29 08:12:14;;;;;;;26.37;16.80;;;;;;;-2.74;86.04;97706.58;1740953;82;21127;-65
2021/01/29 08:15:30;;;;;;;27.10;19.13;;;;;;;-2.67;85.95;97719.95;1740625;82;21850;-62
2021/01/29 08:18:13;;;;;;;28.07;19.27;;;;;;;-2.63;85.89;97720.33;1710916;83;21195;-63
2021/01/29 08:21:03;;;;;;;29.50;19.12;;;;;;;-2.56;85.88;97717.16;1698099;83;23619;-64
2021/01/29 08:23:54;;;;;;;31.67;21.57;;;;;;;-2.54;85.89;97710.38;1679639;85;21653;-62
2021/01/29 08:26:41;;;;;;;31.57;22.17;;;;;;;-2.53;86.02;97711.45;1737964;82;21642;-62
2021/01/29 08:29:47;;;;;;;33.57;21.00;;;;;;;-2.46;86.24;97698.25;1719503;82;21134;-63
2021/01/29 08:32:40;;;;;;;28.30;21.70;;;;;;;-2.36;86.39;97702.01;1716784;82;21573;-64
2021/01/29 08:35:43;;;;;;;35.67;23.20;;;;;;;-2.26;86.54;97700.20;1737556;82;21193;-64
2021/01/29 08:38:35;;;;;;;41.20;23.47;;;;;;;-2.08;86.68;97697.58;1846401;76;27198;-62
2021/01/29 08:41:21;;;;;;;32.67;21.80;;;;;;;-2.04;86.64;97690.05;1815048;79;21015;-61
2021/01/29 08:44:12;;;;;;;36.40;22.70;;;;;;;-1.97;86.60;97693.43;1810785;79;21422;-62
2021/01/29 08:47:08;;;;;;;38.30;24.30;;;;;;;-1.94;86.49;97683.25;1810487;79;21051;-62
2021/01/29 08:50:12;;;;;;;29.50;21.23;;;;;;;-1.83;86.57;97687.80;1847175;76;26568;-63
2021/01/29 08:52:51;;;;;;;28.10;19.17;;;;;;;-1.84;86.52;97682.73;1817321;79;21122;-63
2021/01/29 08:56:16;;;;;;;34.27;23.77;;;;;;;-1.82;86.63;97680.67;1788746;79;21271;-65
2021/01/29 08:59:05;;;;;;;26.13;18.77;;;;;;;-1.82;86.67;97685.43;1784942;80;21014;-67
2021/01/29 09:02:04;;;;;;;30.27;20.80;;;;;;;-1.77;86.71;97682.14;1806417;79;21050;-64
2021/01/29 09:04:52;;;;;;;42.47;23.47;;;;;;;-1.79;86.75;97692.11;1816138;79;21026;-63
2021/01/29 09:07:34;;;;;;;30.33;19.77;;;;;;;-1.78;86.98;97681.36;1794562;79;20975;-64
2021/01/29 09:10:13;;;;;;;34.97;23.97;;;;;;;-1.72;87.23;97678.84;1760690;80;21266;-65
2021/01/29 09:12:41;;;;;;;28.83;21.00;;;;;;;-1.67;87.21;97682.42;1752269;81;21006;-68
2021/01/29 09:15:59;;;;;;;32.07;21.83;;;;;;;-1.62;87.24;97677.81;1748562;80;21603;-63
2021/01/29 09:18:41;;;;;;;33.47;23.90;;;;;;;-1.61;87.20;97685.50;1785153;80;21527;-62
2021/01/29 09:21:13;;;;;;;28.90;19.87;;;;;;;-1.58;87.29;97671.88;1784118;80;21571;-66
2021/01/29 09:23:55;;;;;;;31.52;20.80;;;;;;;-1.55;87.34;97677.23;1758504;80;22302;-63
2021/01/29 09:26:47;;;;;;;35.38;20.52;;;;;;;-1.56;87.20;97676.93;1785414;80;21113;-65
2021/01/29 09:29:22;;;;;;;33.57;22.53;;;;;;;-1.54;87.40;97682.28;1781954;80;21125;-66
2021/01/29 09:32:03;;;;;;;27.57;20.47;;;;;;;-1.50;87.47;97679.49;1784987;80;21547;-64
2021/01/29 09:34:41;;;;;;;33.00;21.33;;;;;;;-1.45;87.57;97680.95;1779477;80;21542;-64
2021/01/29 09:37:12;;;;;;;37.17;23.10;;;;;;;-1.48;87.43;97676.61;1784988;80;21197;-65
2021/01/29 09:39:47;;;;;;;37.20;25.13;;;;;;;-1.48;87.58;97673.98;1756196;81;21700;-66
2021/01/29 09:42:26;;;;;;;35.40;24.90;;;;;;;-1.52;87.76;97673.63;1737439;81;22244;-62
2021/01/29 09:45:01;;;;;;;37.17;25.30;;;;;;;-1.49;87.98;97674.52;1708559;82;21608;-62
2021/01/29 09:47:29;;;;;;;33.53;22.63;;;;;;;-1.45;88.20;97662.50;1735399;82;21589;-64
2021/01/29 09:50:06;;;;;;;41.77;25.83;;;;;;;-1.35;88.36;97658.82;1735770;82;21403;-64
2021/01/29 09:52:55;;;;;;;31.53;20.67;;;;;;;-1.26;88.34;97660.63;1735806;82;21167;-63
2021/01/29 09:55:42;;;;;;;36.10;23.33;;;;;;;-1.17;88.21;97657.14;1735270;82;21648;-62
2021/01/29 09:58:27;;;;;;;43.07;25.77;;;;;;;-1.12;88.18;97658.09;1735641;82;21182;-63
2021/01/29 10:01:09;;;;;;;37.60;24.33;;;;;;;-1.05;88.29;97655.33;1721964;82;21648;-64
2021/01/29 10:04:22;;;;;;;25.83;18.73;;;;;;;-0.96;88.21;97656.64;1719918;82;21406;-65
2021/01/29 10:06:55;;;;;;;32.78;20.02;;;;;;;-0.94;88.06;97652.73;1713582;83;21024;-67
2021/01/29 10:09:39;;;;;;;47.80;27.32;;;;;;;-0.90;88.10;97643.33;1717504;82;21182;-64
2021/01/29 10:12:14;;;;;;;43.30;25.10;;;;;;;-0.86;88.09;97647.63;1739961;82;21925;-63
2021/01/29 10:15:04;;;;;;;39.70;24.07;;;;;;;-0.84;88.05;97646.91;1742338;82;21195;-64
2021/01/29 10:17:41;;;;;;;42.53;25.80;;;;;;;-0.80;88.09;97647.25;1742959;82;21849;-64
2021/01/29 10:20:11;;;;;;;41.70;24.73;;;;;;;-0.76;88.05;97637.84;1740871;82;21175;-64
2021/01/29 10:23:14;;;;;;;40.60;24.20;;;;;;;-0.66;88.17;97636.77;1742940;82;21136;-66
2021/01/29 10:25:46;;;;;;;40.03;25.77;;;;;;;-0.55;88.04;97631.50;1742991;82;21111;-64
2021/01/29 10:28:47;;;;;;;38.70;23.87;;;;;;;-0.38;88.12;97626.32;1733764;82;21224;-63
2021/01/29 10:31:14;;;;;;;26.50;18.17;;;;;;;-0.21;88.01;97623.28;1713470;83;22295;-64
2021/01/29 10:33:47;;;;;;;45.43;26.37;;;;;;;0.00;87.40;97633.77;1737045;82;21613;-64
2021/01/29 10:36:28;;;;;;;28.83;18.47;;;;;;;0.17;87.54;97628.55;1742636;82;21158;-65
2021/01/29 10:39:04;;;;;;;27.73;16.90;;;;;;;0.37;87.30;97611.77;1736063;82;21676;-67
2021/01/29 10:41:46;;;;;;;38.50;22.23;;;;;;;0.48;85.06;97615.41;1743158;82;21172;-66
2021/01/29 10:44:30;;;;;;;38.73;22.60;;;;;;;0.54;84.82;97613.94;1715366;82;21447;-63
2021/01/29 10:47:37;;;;;;;27.80;17.93;;;;;;;0.65;84.08;97615.73;1715619;82;21592;-66
2021/01/29 10:50:26;;;;;;;22.37;16.33;;;;;;;0.73;83.56;97612.70;1740657;81;21151;-64
2021/01/29 10:53:18;;;;;;;26.33;16.67;;;;;;;0.72;82.35;97606.34;1727623;82;21032;-65
2021/01/29 10:56:02;;;;;;;19.00;15.10;;;;;;;0.67;80.35;97610.22;1739820;82;21190;-63
2021/01/29 10:58:58;;;;;;;17.45;13.15;;;;;;;0.51;78.20;97635.57;1723353;82;21482;-65
2021/01/29 11:01:33;;;;;;;20.30;13.73;;;;;;;0.42;78.12;97624.57;1739784;82;21142;-62
2021/01/29 11:04:09;;;;;;;18.27;14.27;;;;;;;0.36;78.35;97626.83;1739435;82;21210;-64
2021/01/29 11:06:48;;;;;;;17.10;11.23;;;;;;;0.39;78.66;97608.36;1739204;80;21217;-67
2021/01/29 11:09:20;;;;;;;20.93;14.60;;;;;;;0.38;78.40;97606.77;1704917;84;21650;-64
2021/01/29 11:12:20;;;;;;;20.37;14.07;;;;;;;0.38;78.10;97606.23;1686332;84;21398;-67
2021/01/29 11:15:21;;;;;;;22.00;13.83;;;;;;;0.42;77.75;97618.48;1672720;84;21206;-63
2021/01/29 11:18:14;;;;;;;18.17;13.73;;;;;;;0.46;77.21;97609.03;1727280;81;21070;-65
2021/01/29 11:20:42;;;;;;;18.87;12.28;;;;;;;0.52;76.18;97588.27;1733181;82;21754;-64
2021/01/29 11:23:48;;;;;;;20.53;12.20;;;;;;;0.63;75.59;97604.58;1705905;82;21184;-63
2021/01/29 11:26:57;;;;;;;18.37;12.73;;;;;;;0.68;73.45;97611.80;1707353;82;21393;-66
2021/01/29 11:29:51;;;;;;;17.40;12.40;;;;;;;0.73;71.52;97610.56;1705353;84;21177;-64
2021/01/29 11:32:39;;;;;;;17.80;11.20;;;;;;;0.75;71.00;97603.20;1690565;81;21047;-63
2021/01/29 11:35:36;;;;;;;18.03;11.53;;;;;;;0.80;71.67;97623.14;1702947;84;21190;-63
2021/01/29 11:38:20;;;;;;;15.77;11.17;;;;;;;0.80;70.33;97617.33;1703215;82;21182;-62
2021/01/29 11:41:12;;;;;;;16.73;11.67;;;;;;;0.88;70.02;97616.93;1709517;82;21415;-62
2021/01/29 11:44:07;;;;;;;14.00;10.10;;;;;;;0.96;69.65;97614.41;1734685;82;21218;-63
2021/01/29 11:46:42;;;;;;;12.27;9.60;;;;;;;0.95;69.64;97596.95;1733926;82;21588;-65
2021/01/29 11:49:20;;;;;;;13.40;9.87;;;;;;;0.88;69.11;97614.80;1724698;81;21233;-64
2021/01/29 11:52:02;;;;;;;12.23;8.20;;;;;;;0.82;68.84;97607.30;1697350;83;21146;-66
2021/01/29 11:55:08;;;;;;;9.67;7.63;;;;;;;0.71;66.32;97618.76;1700503;83;21400;-62
2021/01/29 11:58:03;;;;;;;16.20;9.17;;;;;;;0.69;66.94;97625.31;1699042;83;21089;-64
2021/01/29 12:00:41;;;;;;;14.63;9.30;;;;;;;0.66;68.14;97620.51;1676398;85;21377;-68
2021/01/29 12:03:39;;;;;;;14.53;8.93;;;;;;;0.62;66.83;97628.12;1700132;84;21217;-69
2021/01/29 12:06:16;;;;;;;11.80;8.03;;;;;;;0.62;67.43;97629.95;1736736;81;21227;-72
2021/01/29 12:09:11;;;;;;;18.13;9.50;;;;;;;0.58;66.78;97636.73;1705685;82;23543;-63
2021/01/29 12:12:02;;;;;;;11.03;7.50;;;;;;;0.57;67.06;97612.16;1735084;82;21621;-65
2021/01/29 12:14:55;;;;;;;11.73;8.73;;;;;;;0.56;65.41;97632.22;1712711;83;21216;-68
2021/01/29 12:17:27;;;;;;;12.05;7.75;;;;;;;0.53;65.88;97637.44;1714328;83;21660;-66
2021/01/29 12:20:15;;;;;;;12.13;7.90;;;;;;;0.51;65.90;97625.00;1683789;83;21150;-69
2021/01/29 12:22:46;;;;;;;11.43;8.17;;;;;;;0.51;65.88;97627.64;1733094;82;22375;-64
2021/01/29 12:25:52;;;;;;;9.73;8.20;;;;;;;0.52;65.90;97625.28;1717485;82;21605;-64
2021/01/29 12:29:05;;;;;;;13.47;6.33;;;;;;;0.57;66.11;97635.15;1679953;82;21216;-66
2021/01/29 12:32:13;;;;;;;9.70;6.60;;;;;;;0.62;66.19;97643.18;1681992;85;21149;-65
2021/01/29 12:34:46;;;;;;;14.07;8.43;;;;;;;0.65;66.47;97628.95;1680922;85;21141;-66
2021/01/29 12:37:25;;;;;;;12.07;6.97;;;;;;;0.68;66.05;97629.80;1693798;84;21374;-65
2021/01/29 12:39:59;;;;;;;12.13;8.03;;;;;;;0.69;65.31;97629.28;1712488;83;21137;-68
2021/01/29 12:42:57;;;;;;;12.93;9.03;;;;;;;0.73;64.68;97635.18;1846931;76;22705;-65
2021/01/29 12:45:42;;;;;;;14.77;7.43;;;;;;;0.67;64.00;97650.66;1817333;79;21154;-65
2021/01/29 12:48:46;;;;;;;10.33;7.63;;;;;;;0.68;64.43;97637.73;1817154;79;21357;-65
2021/01/29 12:51:47;;;;;;;10.33;8.07;;;;;;;0.70;64.34;97633.53;1817119;79;20998;-65
2021/01/29 12:54:30;;;;;;;15.80;8.97;;;;;;;0.73;65.02;97640.98;1816961;79;21003;-68
2021/01/29 12:57:04;;;;;;;14.23;7.70;;;;;;;0.77;65.23;97637.63;1816836;79;21082;-65
2021/01/29 12:59:49;;;;;;;13.50;8.53;;;;;;;0.80;64.32;97651.72;1817071;79;20921;-63
2021/01/29 13:02:56;;;;;;;9.07;7.43;;;;;;;0.78;64.26;97641.88;1818483;78;21552;-63
2021/01/29 13:05:35;;;;;;;10.53;6.43;;;;;;;0.80;63.91;97649.08;1794043;79;21002;-63
2021/01/29 13:08:24;;;;;;;18.43;8.77;;;;;;;0.81;63.65;97669.20;1785164;79;21189;-66
2021/01/29 13:11:47;;;;;;;13.87;8.87;;;;;;;0.79;63.29;97655.92;1784908;80;21161;-66